Time,TemperatureF,DewpointF,PressureIn,WindDirection,WindDirectionDegrees,WindSpeedMPH,WindSpeedGustMPH,Humidity,HourlyPrecipIn,Conditions,Clouds,dailyrainin,SoftwareType,DateUTC
2013-02-14 00:00:00,34.0,28.5,29.85,East,90,0.0,0.0,80,0.00,,CLR,0.28,VWS V12.08,2013-02-14 05:00:00,
2013-02-14 00:01:00,34.0,28.5,29.85,East,90,0.0,0.0,80,0.00,,CLR,0.28,VWS V12.08,2013-02-14 05:01:00,
2013-02-14 00:06:00,34.0,28.8,29.85,East,90,0.0,0.0,81,0.00,,CLR,0.26,VWS V12.08,2013-02-14 05:06:00,
2013-02-14 00:11:00,33.8,28.6,29.85,East,90,0.0,0.0,81,0.00,,CLR,0.26,VWS V12.08,2013-02-14 05:11:00,
2013-02-14 00:16:00,33.6,28.4,29.86,ESE,112,0.0,0.0,81,0.00,,CLR,0.26,VWS V12.08,2013-02-14 05:16:00,
2013-02-14 00:21:00,33.6,28.4,29.85,ESE,112,0.0,0.0,81,0.00,,CLR,0.26,VWS V12.08,2013-02-14 05:21:00,
2013-02-14 00:26:00,33.4,28.2,29.86,ESE,112,0.0,0.0,81,0.00,,CLR,0.26,VWS V12.08,2013-02-14 05:26:00,
2013-02-14 00:31:00,33.4,28.2,29.86,ESE,112,0.0,0.0,81,0.00,,CLR,0.26,VWS V12.08,2013-02-14 05:31:00,
2013-02-14 00:36:00,33.4,28.2,29.86,ESE,112,0.0,0.0,81,0.00,,CLR,0.26,VWS V12.08,2013-02-14 05:36:00,
2013-02-14 00:41:00,33.3,28.1,29.86,ESE,112,0.0,0.0,81,0.00,,CLR,0.26,VWS V12.08,2013-02-14 05:41:00,
2013-02-14 00:46:00,33.3,28.4,29.86,ESE,112,0.0,0.0,82,0.00,,CLR,0.26,VWS V12.08,2013-02-14 05:46:00,
2013-02-14 00:51:00,33.4,28.5,29.86,ESE,112,0.0,0.0,82,0.00,,CLR,0.26,VWS V12.08,2013-02-14 05:51:00,
2013-02-14 00:56:00,33.4,28.5,29.86,ESE,112,0.0,0.0,82,0.00,,CLR,0.26,VWS V12.08,2013-02-14 05:56:00,
2013-02-14 01:01:00,33.4,28.5,29.87,ESE,112,0.0,0.0,82,0.00,,CLR,0.11,VWS V12.08,2013-02-14 06:01:00,
2013-02-14 01:06:00,33.6,28.7,29.87,ESE,112,0.0,0.0,82,0.00,,CLR,0.11,VWS V12.08,2013-02-14 06:06:00,
2013-02-14 01:11:00,33.6,28.7,29.87,ESE,112,0.0,0.0,82,0.00,,CLR,0.11,VWS V12.08,2013-02-14 06:11:00,
2013-02-14 01:16:00,33.6,28.4,29.87,ESE,112,0.0,0.0,81,0.00,,CLR,0.11,VWS V12.08,2013-02-14 06:16:00,
2013-02-14 01:21:00,33.6,28.4,29.87,ESE,112,0.0,0.0,81,0.00,,CLR,0.11,VWS V12.08,2013-02-14 06:21:00,
2013-02-14 01:26:00,33.6,28.4,29.87,ESE,112,0.0,0.0,81,0.00,,CLR,0.11,VWS V12.08,2013-02-14 06:26:00,
2013-02-14 01:31:00,33.6,28.4,29.87,ESE,112,0.0,0.0,81,0.00,,CLR,0.11,VWS V12.08,2013-02-14 06:31:00,
2013-02-14 01:36:00,33.6,28.4,29.87,ESE,112,0.0,0.0,81,0.00,,CLR,0.11,VWS V12.08,2013-02-14 06:36:00,
2013-02-14 01:41:00,33.4,28.2,29.88,ESE,112,0.9,0.9,81,0.00,,CLR,0.11,VWS V12.08,2013-02-14 06:41:00,
2013-02-14 01:46:00,33.6,28.4,29.88,ESE,112,0.0,0.9,81,0.00,,CLR,0.11,VWS V12.08,2013-02-14 06:46:00,
2013-02-14 01:51:00,33.6,28.4,29.88,ESE,112,0.0,0.9,81,0.00,,CLR,0.11,VWS V12.08,2013-02-14 06:51:00,
2013-02-14 01:56:00,34.0,28.8,29.88,ESE,112,0.2,0.9,81,0.00,,CLR,0.11,VWS V12.08,2013-02-14 06:56:00,
2013-02-14 02:01:00,34.0,28.5,29.88,ESE,112,0.2,0.2,80,0.00,,CLR,0.06,VWS V12.08,2013-02-14 07:01:00,
2013-02-14 02:06:00,34.2,28.6,29.88,ESE,112,0.0,0.2,80,0.00,,CLR,0.06,VWS V12.08,2013-02-14 07:06:00,
2013-02-14 02:11:00,34.3,28.8,29.88,ESE,112,0.0,0.2,80,0.00,,CLR,0.06,VWS V12.08,2013-02-14 07:11:00,
2013-02-14 02:16:00,34.3,28.8,29.88,ESE,112,0.0,0.2,80,0.00,,CLR,0.06,VWS V12.08,2013-02-14 07:16:00,
2013-02-14 02:21:00,34.3,28.5,29.88,ESE,112,0.0,0.0,79,0.00,,CLR,0.06,VWS V12.08,2013-02-14 07:21:00,
2013-02-14 02:26:00,34.3,28.5,29.89,ESE,112,0.0,0.0,79,0.00,,CLR,0.06,VWS V12.08,2013-02-14 07:26:00,
2013-02-14 02:31:00,34.2,28.3,29.89,ESE,112,0.0,0.0,79,0.00,,CLR,0.06,VWS V12.08,2013-02-14 07:31:00,
2013-02-14 02:36:00,33.8,28.0,29.89,ESE,112,0.0,0.0,79,0.00,,CLR,0.06,VWS V12.08,2013-02-14 07:36:00,
2013-02-14 02:41:00,33.6,27.8,29.89,ESE,112,0.0,0.0,79,0.00,,CLR,0.06,VWS V12.08,2013-02-14 07:41:00,
2013-02-14 02:46:00,33.4,27.6,29.89,ESE,112,0.0,0.0,79,0.00,,CLR,0.06,VWS V12.08,2013-02-14 07:46:00,
2013-02-14 02:51:00,33.3,27.5,29.89,ESE,112,0.0,0.0,79,0.00,,CLR,0.06,VWS V12.08,2013-02-14 07:51:00,
2013-02-14 02:56:00,33.3,27.5,29.89,ESE,112,0.0,0.0,79,0.00,,CLR,0.06,VWS V12.08,2013-02-14 07:56:00,
2013-02-14 03:01:00,33.1,27.3,29.89,ESE,112,0.0,0.0,79,0.00,,CLR,0.06,VWS V12.08,2013-02-14 08:01:00,
2013-02-14 03:06:00,32.9,27.4,29.89,ESE,112,0.0,0.0,80,0.00,,CLR,0.06,VWS V12.08,2013-02-14 08:06:00,
2013-02-14 03:11:00,32.9,27.4,29.89,ESE,112,0.0,0.0,80,0.00,,CLR,0.06,VWS V12.08,2013-02-14 08:11:00,
2013-02-14 03:16:00,32.7,27.2,29.89,ESE,112,0.0,0.0,80,0.00,,CLR,0.06,VWS V12.08,2013-02-14 08:16:00,
2013-02-14 03:21:00,32.7,27.2,29.90,ESE,112,0.0,0.0,80,0.00,,CLR,0.06,VWS V12.08,2013-02-14 08:21:00,
2013-02-14 03:26:00,32.5,27.1,29.90,ESE,112,0.0,0.0,80,0.00,,CLR,0.06,VWS V12.08,2013-02-14 08:26:00,
2013-02-14 03:32:00,32.5,27.1,29.89,ESE,112,0.0,0.0,80,0.00,,CLR,0.06,VWS V12.08,2013-02-14 08:32:00,
2013-02-14 03:37:00,32.5,27.1,29.89,ESE,112,0.0,0.0,80,0.00,,CLR,0.06,VWS V12.08,2013-02-14 08:37:00,
2013-02-14 03:42:00,32.5,27.1,29.90,ESE,112,0.0,0.0,80,0.00,,CLR,0.06,VWS V12.08,2013-02-14 08:42:00,
2013-02-14 03:47:00,32.2,27.0,29.89,ESE,112,0.0,0.0,81,0.00,,CLR,0.06,VWS V12.08,2013-02-14 08:47:00,
2013-02-14 03:52:00,32.2,27.0,29.89,ESE,112,0.0,0.0,81,0.00,,CLR,0.06,VWS V12.08,2013-02-14 08:52:00,
2013-02-14 03:57:00,31.8,26.7,29.89,ESE,112,0.0,0.0,81,0.00,,CLR,0.06,VWS V12.08,2013-02-14 08:57:00,
2013-02-14 04:02:00,31.8,26.7,29.89,ESE,112,0.0,0.0,81,0.00,,CLR,0.06,VWS V12.08,2013-02-14 09:02:00,
2013-02-14 04:07:00,31.6,26.5,29.90,ESE,112,0.0,0.0,81,0.00,,CLR,0.06,VWS V12.08,2013-02-14 09:07:00,
2013-02-14 04:12:00,31.6,26.5,29.89,ESE,112,0.0,0.0,81,0.00,,CLR,0.06,VWS V12.08,2013-02-14 09:12:00,
2013-02-14 04:17:00,31.6,26.5,29.90,ESE,112,0.0,0.0,81,0.00,,CLR,0.06,VWS V12.08,2013-02-14 09:17:00,
2013-02-14 04:22:00,31.5,26.3,29.90,ESE,112,0.0,0.0,81,0.00,,CLR,0.06,VWS V12.08,2013-02-14 09:22:00,
2013-02-14 04:27:00,31.3,26.1,29.90,ESE,112,0.0,0.0,81,0.00,,CLR,0.06,VWS V12.08,2013-02-14 09:27:00,
2013-02-14 04:32:00,31.3,26.1,29.90,ESE,112,0.0,0.0,81,0.00,,CLR,0.06,VWS V12.08,2013-02-14 09:32:00,
2013-02-14 04:37:00,31.3,26.1,29.91,ESE,112,0.0,0.0,81,0.00,,CLR,0.06,VWS V12.08,2013-02-14 09:37:00,
2013-02-14 04:42:00,31.3,26.1,29.91,ESE,112,0.0,0.0,81,0.00,,CLR,0.06,VWS V12.08,2013-02-14 09:42:00,
2013-02-14 04:47:00,31.3,26.1,29.91,ESE,112,0.0,0.0,81,0.00,,CLR,0.06,VWS V12.08,2013-02-14 09:47:00,
2013-02-14 04:52:00,31.1,26.0,29.91,ESE,112,0.0,0.0,81,0.00,,CLR,0.06,VWS V12.08,2013-02-14 09:52:00,
2013-02-14 04:57:00,31.1,26.0,29.91,ESE,112,0.0,0.0,81,0.00,,CLR,0.06,VWS V12.08,2013-02-14 09:57:00,
2013-02-14 05:02:00,31.1,26.3,29.91,ESE,112,0.0,0.0,82,0.00,,CLR,0.06,VWS V12.08,2013-02-14 10:02:00,
2013-02-14 05:07:00,30.9,26.1,29.91,ESE,112,0.0,0.0,82,0.00,,CLR,0.06,VWS V12.08,2013-02-14 10:07:00,
2013-02-14 05:12:00,30.9,26.1,29.91,ESE,112,0.0,0.0,82,0.00,,CLR,0.06,VWS V12.08,2013-02-14 10:12:00,
2013-02-14 05:17:00,30.7,25.9,29.91,ESE,112,0.0,0.0,82,0.00,,CLR,0.06,VWS V12.08,2013-02-14 10:17:00,
2013-02-14 05:22:00,30.7,25.9,29.92,ESE,112,0.0,0.0,82,0.00,,CLR,0.06,VWS V12.08,2013-02-14 10:22:00,
2013-02-14 05:27:00,30.7,25.9,29.92,ESE,112,0.0,0.0,82,0.00,,CLR,0.06,VWS V12.08,2013-02-14 10:27:00,
2013-02-14 05:32:00,30.6,25.7,29.92,ESE,112,0.0,0.0,82,0.00,,CLR,0.06,VWS V12.08,2013-02-14 10:32:00,
2013-02-14 05:37:00,30.6,25.7,29.92,ESE,112,0.0,0.0,82,0.00,,CLR,0.06,VWS V12.08,2013-02-14 10:37:00,
2013-02-14 05:42:00,30.6,25.7,29.93,ESE,112,0.0,0.0,82,0.00,,CLR,0.06,VWS V12.08,2013-02-14 10:42:00,
2013-02-14 05:47:00,30.2,25.4,29.93,ESE,112,0.0,0.0,82,0.00,,CLR,0.06,VWS V12.08,2013-02-14 10:47:00,
2013-02-14 05:52:00,30.2,25.4,29.92,ESE,112,0.0,0.0,82,0.00,,CLR,0.06,VWS V12.08,2013-02-14 10:52:00,
2013-02-14 05:57:00,30.2,25.4,29.93,ESE,112,0.0,0.0,82,0.00,,CLR,0.06,VWS V12.08,2013-02-14 10:57:00,
2013-02-14 06:02:00,30.2,25.4,29.93,ESE,112,0.0,0.0,82,0.00,,CLR,0.06,VWS V12.08,2013-02-14 11:02:00,
2013-02-14 06:07:00,30.4,25.5,29.93,ESE,112,0.0,0.0,82,0.00,,CLR,0.04,VWS V12.08,2013-02-14 11:07:00,
2013-02-14 06:12:00,30.6,25.7,29.93,ESE,112,0.0,0.0,82,0.00,,CLR,0.04,VWS V12.08,2013-02-14 11:12:00,
2013-02-14 06:17:00,30.6,25.7,29.93,ESE,112,0.0,0.0,82,0.00,,CLR,0.04,VWS V12.08,2013-02-14 11:17:00,
2013-02-14 06:22:00,30.6,25.7,29.93,ESE,112,0.0,0.0,82,0.00,,CLR,0.04,VWS V12.08,2013-02-14 11:22:00,
2013-02-14 06:27:00,30.6,25.7,29.94,ESE,112,0.0,0.0,82,0.00,,CLR,0.04,VWS V12.08,2013-02-14 11:27:00,
2013-02-14 06:32:00,30.6,25.7,29.94,ESE,112,0.0,0.0,82,0.00,,CLR,0.04,VWS V12.08,2013-02-14 11:32:00,
2013-02-14 06:37:00,30.4,25.5,29.94,ESE,112,0.0,0.0,82,0.00,,CLR,0.04,VWS V12.08,2013-02-14 11:37:00,
2013-02-14 06:42:00,30.4,25.5,29.95,ESE,112,0.0,0.0,82,0.00,,CLR,0.04,VWS V12.08,2013-02-14 11:42:00,
2013-02-14 06:47:00,30.4,25.5,29.95,ESE,112,0.0,0.0,82,0.00,,CLR,0.04,VWS V12.08,2013-02-14 11:47:00,
2013-02-14 06:52:00,30.4,25.5,29.95,ESE,112,0.0,0.0,82,0.00,,CLR,0.04,VWS V12.08,2013-02-14 11:52:00,
2013-02-14 06:57:00,30.2,25.4,29.95,ESE,112,0.0,0.0,82,0.00,,CLR,0.04,VWS V12.08,2013-02-14 11:57:00,
2013-02-14 07:02:00,30.2,25.4,29.95,ESE,112,0.0,0.0,82,0.00,,CLR,0.04,VWS V12.08,2013-02-14 12:02:00,
2013-02-14 07:07:00,30.4,25.5,29.95,ESE,112,0.0,0.0,82,0.00,,CLR,0.04,VWS V12.08,2013-02-14 12:07:00,
2013-02-14 07:12:00,30.4,25.5,29.96,ESE,112,0.0,0.0,82,0.00,,CLR,0.04,VWS V12.08,2013-02-14 12:12:00,
2013-02-14 07:17:00,30.4,25.5,29.96,ESE,112,0.0,0.0,82,0.00,,CLR,0.04,VWS V12.08,2013-02-14 12:17:00,
2013-02-14 07:22:00,30.4,25.5,29.96,ESE,112,0.0,0.0,82,0.00,,CLR,0.04,VWS V12.08,2013-02-14 12:22:00,
2013-02-14 07:27:00,30.0,25.2,29.96,ESE,112,0.0,0.0,82,0.00,,CLR,0.04,VWS V12.08,2013-02-14 12:27:00,
2013-02-14 07:33:00,30.0,25.2,29.97,ESE,112,0.0,0.0,82,0.00,,CLR,0.04,VWS V12.08,2013-02-14 12:33:00,
2013-02-14 07:38:00,30.0,25.2,29.97,ESE,112,0.0,0.0,82,0.00,,CLR,0.04,VWS V12.08,2013-02-14 12:38:00,
2013-02-14 07:43:00,30.4,25.5,29.97,ESE,112,0.0,0.0,82,0.00,,CLR,0.04,VWS V12.08,2013-02-14 12:43:00,
2013-02-14 07:48:00,30.4,25.5,29.97,ESE,112,0.0,0.0,82,0.00,,CLR,0.04,VWS V12.08,2013-02-14 12:48:00,
2013-02-14 07:53:00,30.7,25.9,29.98,ESE,112,0.0,0.0,82,0.00,,CLR,0.04,VWS V12.08,2013-02-14 12:53:00,
2013-02-14 07:58:00,30.9,26.1,29.98,ESE,112,0.0,0.0,82,0.00,,CLR,0.04,VWS V12.08,2013-02-14 12:58:00,
2013-02-14 08:03:00,30.9,26.1,29.98,ESE,112,0.0,0.0,82,0.00,,CLR,0.04,VWS V12.08,2013-02-14 13:03:00,
2013-02-14 08:08:00,31.1,26.3,29.99,ESE,112,0.0,0.0,82,0.00,,CLR,0.04,VWS V12.08,2013-02-14 13:08:00,
2013-02-14 08:13:00,31.3,26.1,30.00,ESE,112,0.0,0.0,81,0.00,,CLR,0.04,VWS V12.08,2013-02-14 13:13:00,
2013-02-14 08:18:00,31.3,26.1,30.01,ESE,112,0.0,0.0,81,0.00,,CLR,0.04,VWS V12.08,2013-02-14 13:18:00,
2013-02-14 08:23:00,31.6,26.5,30.01,ESE,112,0.0,0.0,81,0.00,,CLR,0.04,VWS V12.08,2013-02-14 13:23:00,
2013-02-14 08:28:00,31.8,26.7,30.01,ESE,112,0.0,0.0,81,0.00,,CLR,0.04,VWS V12.08,2013-02-14 13:28:00,
2013-02-14 08:33:00,32.4,27.2,30.01,ESE,112,0.0,0.0,81,0.00,,CLR,0.04,VWS V12.08,2013-02-14 13:33:00,
2013-02-14 08:38:00,32.7,27.2,30.01,ESE,112,0.0,0.0,80,0.00,,CLR,0.04,VWS V12.08,2013-02-14 13:38:00,
2013-02-14 08:43:00,32.7,27.2,30.01,ESE,112,0.0,0.0,80,0.00,,CLR,0.04,VWS V12.08,2013-02-14 13:43:00,
2013-02-14 08:48:00,33.6,27.8,30.02,ESE,112,0.0,0.0,79,0.00,,CLR,0.04,VWS V12.08,2013-02-14 13:48:00,
2013-02-14 08:53:00,34.3,28.2,30.01,ESE,112,0.0,0.0,78,0.00,,CLR,0.04,VWS V12.08,2013-02-14 13:53:00,
2013-02-14 08:58:00,34.3,28.2,30.01,ESE,112,0.0,0.0,78,0.00,,CLR,0.04,VWS V12.08,2013-02-14 13:58:00,
2013-02-14 09:03:00,34.3,28.2,30.01,ESE,112,0.0,0.0,78,0.00,,CLR,0.04,VWS V12.08,2013-02-14 14:03:00,
2013-02-14 09:08:00,35.2,28.5,30.01,ESE,112,0.0,0.0,76,0.00,,CLR,0.04,VWS V12.08,2013-02-14 14:08:00,
2013-02-14 09:13:00,35.2,28.5,30.01,ESE,112,0.0,0.0,76,0.00,,CLR,0.04,VWS V12.08,2013-02-14 14:13:00,
2013-02-14 09:18:00,35.2,28.5,30.02,ESE,112,0.0,0.0,76,0.00,,CLR,0.04,VWS V12.08,2013-02-14 14:18:00,
2013-02-14 09:23:00,36.3,28.2,30.02,ENE,68,0.0,0.0,72,0.00,,CLR,0.04,VWS V12.08,2013-02-14 14:23:00,
2013-02-14 09:28:00,36.5,28.4,30.02,ENE,68,0.0,0.0,72,0.00,,CLR,0.04,VWS V12.08,2013-02-14 14:28:00,
2013-02-14 09:33:00,36.5,28.4,30.02,WSW,248,0.0,0.0,72,0.00,,CLR,0.04,VWS V12.08,2013-02-14 14:33:00,
2013-02-14 09:38:00,36.9,28.0,30.02,West,270,0.0,0.0,70,0.00,,CLR,0.04,VWS V12.08,2013-02-14 14:38:00,
2013-02-14 09:43:00,36.9,28.0,30.01,West,270,0.0,0.0,70,0.00,,CLR,0.04,VWS V12.08,2013-02-14 14:43:00,
2013-02-14 09:48:00,36.9,28.0,30.02,West,270,0.0,0.0,70,0.00,,CLR,0.04,VWS V12.08,2013-02-14 14:48:00,
2013-02-14 09:53:00,37.9,28.7,30.03,West,270,0.0,0.0,69,0.00,,CLR,0.04,VWS V12.08,2013-02-14 14:53:00,
2013-02-14 09:58:00,38.8,29.2,30.01,WSW,248,0.0,1.1,68,0.00,,CLR,0.04,VWS V12.08,2013-02-14 14:58:00,
2013-02-14 10:03:00,39.0,29.4,30.01,WNW,292,0.4,1.8,68,0.00,,CLR,0.02,VWS V12.08,2013-02-14 15:03:00,
2013-02-14 10:08:00,39.7,29.3,30.02,WNW,292,0.0,4.7,66,0.00,,CLR,0.02,VWS V12.08,2013-02-14 15:08:00,
2013-02-14 10:13:00,39.9,29.1,30.01,West,270,0.0,4.7,65,0.00,,CLR,0.02,VWS V12.08,2013-02-14 15:13:00,
2013-02-14 10:18:00,40.3,29.1,30.01,NW,315,0.0,4.7,64,0.00,,CLR,0.02,VWS V12.08,2013-02-14 15:18:00,
2013-02-14 10:23:00,40.8,30.0,30.01,NNW,338,0.0,1.8,65,0.00,,CLR,0.02,VWS V12.08,2013-02-14 15:23:00,
2013-02-14 10:28:00,41.0,29.4,30.01,WNW,292,0.0,4.3,63,0.00,,CLR,0.02,VWS V12.08,2013-02-14 15:28:00,
2013-02-14 10:33:00,41.5,29.9,30.01,WNW,292,0.0,4.3,63,0.00,,CLR,0.02,VWS V12.08,2013-02-14 15:33:00,
2013-02-14 10:38:00,41.7,30.1,30.01,NW,315,0.0,4.3,63,0.00,,CLR,0.02,VWS V12.08,2013-02-14 15:38:00,
2013-02-14 10:43:00,42.1,30.0,30.01,WSW,248,0.0,6.7,62,0.00,,CLR,0.02,VWS V12.08,2013-02-14 15:43:00,
2013-02-14 10:48:00,42.4,30.0,30.01,WNW,292,2.7,6.7,61,0.00,,CLR,0.02,VWS V12.08,2013-02-14 15:48:00,
2013-02-14 10:53:00,42.6,28.9,30.00,NNW,338,0.0,7.4,58,0.00,,CLR,0.02,VWS V12.08,2013-02-14 15:53:00,
2013-02-14 10:58:00,42.6,29.3,30.00,WSW,248,1.3,7.4,59,0.00,,CLR,0.02,VWS V12.08,2013-02-14 15:58:00,
2013-02-14 11:03:00,43.3,30.8,30.00,SW,225,0.0,0.4,61,0.00,,CLR,0.02,VWS V12.08,2013-02-14 16:03:00,
2013-02-14 11:08:00,43.7,30.3,29.99,West,270,0.0,2.7,59,0.00,,CLR,0.02,VWS V12.08,2013-02-14 16:08:00,
2013-02-14 11:13:00,44.2,31.2,30.01,WSW,248,0.0,4.0,60,0.00,,CLR,0.02,VWS V12.08,2013-02-14 16:13:00,
2013-02-14 11:18:00,44.6,30.8,30.01,NW,315,4.5,4.5,58,0.00,,CLR,0.02,VWS V12.08,2013-02-14 16:18:00,
2013-02-14 11:23:00,45.0,30.2,30.01,West,270,2.7,6.3,56,0.00,,CLR,0.02,VWS V12.08,2013-02-14 16:23:00,
2013-02-14 11:28:00,45.1,30.8,30.01,NW,315,0.0,6.3,57,0.00,,CLR,0.02,VWS V12.08,2013-02-14 16:28:00,
2013-02-14 11:33:00,45.3,30.6,30.01,West,270,0.4,6.3,56,0.00,,CLR,0.02,VWS V12.08,2013-02-14 16:33:00,
2013-02-14 11:38:00,45.7,30.5,30.01,WSW,248,4.7,6.3,55,0.00,,CLR,0.02,VWS V12.08,2013-02-14 16:38:00,
2013-02-14 11:43:00,45.9,30.6,30.01,WNW,292,7.2,7.2,55,0.00,,CLR,0.02,VWS V12.08,2013-02-14 16:43:00,
2013-02-14 11:48:00,46.2,31.4,30.01,West,270,2.0,7.2,56,0.00,,CLR,0.02,VWS V12.08,2013-02-14 16:48:00,
2013-02-14 11:53:00,46.8,31.9,30.00,WSW,248,0.9,7.2,56,0.00,,CLR,0.02,VWS V12.08,2013-02-14 16:53:00,
2013-02-14 11:58:00,46.9,32.1,30.00,West,270,2.2,7.2,56,0.00,,CLR,0.02,VWS V12.08,2013-02-14 16:58:00,
2013-02-14 12:03:00,47.1,31.4,29.99,NW,315,0.0,3.8,54,0.00,,CLR,0.00,VWS V12.08,2013-02-14 17:03:00,
2013-02-14 12:08:00,47.1,31.4,29.99,West,270,0.0,3.8,54,0.00,,CLR,0.00,VWS V12.08,2013-02-14 17:08:00,
2013-02-14 12:13:00,47.5,31.7,29.99,WNW,292,1.1,4.5,54,0.00,,CLR,0.00,VWS V12.08,2013-02-14 17:13:00,
2013-02-14 12:18:00,47.8,32.5,29.99,West,270,0.0,4.5,55,0.00,,CLR,0.00,VWS V12.08,2013-02-14 17:18:00,
2013-02-14 12:23:00,48.2,33.3,29.99,WNW,292,0.0,0.4,56,0.00,,CLR,0.00,VWS V12.08,2013-02-14 17:23:00,
2013-02-14 12:28:00,48.7,32.8,29.99,WSW,248,0.0,5.8,54,0.00,,CLR,0.00,VWS V12.08,2013-02-14 17:28:00,
2013-02-14 12:33:00,49.1,32.7,29.99,West,270,2.2,5.8,53,0.00,,CLR,0.00,VWS V12.08,2013-02-14 17:33:00,
2013-02-14 12:38:00,49.3,32.9,29.99,West,270,0.0,5.8,53,0.00,,CLR,0.00,VWS V12.08,2013-02-14 17:38:00,
2013-02-14 12:43:00,49.8,33.9,29.99,North,0,0.0,0.0,54,0.00,,CLR,0.00,VWS V12.08,2013-02-14 17:43:00,
2013-02-14 12:48:00,50.4,33.9,29.99,NW,315,0.0,2.9,53,0.00,,CLR,0.00,VWS V12.08,2013-02-14 17:48:00,
2013-02-14 12:53:00,50.7,33.8,29.98,SW,225,0.0,3.6,52,0.00,,CLR,0.00,VWS V12.08,2013-02-14 17:53:00,
2013-02-14 12:58:00,50.9,34.4,29.98,WNW,292,3.8,4.9,53,0.00,,CLR,0.00,VWS V12.08,2013-02-14 17:58:00,
2013-02-14 13:03:00,51.4,34.4,29.98,WSW,248,0.0,0.9,52,0.00,,CLR,0.00,VWS V12.08,2013-02-14 18:03:00,
2013-02-14 13:08:00,51.6,34.1,29.98,WNW,292,2.5,6.7,51,0.00,,CLR,0.00,VWS V12.08,2013-02-14 18:08:00,
2013-02-14 13:13:00,51.6,34.1,29.97,West,270,2.9,6.7,51,0.00,,CLR,0.00,VWS V12.08,2013-02-14 18:13:00,
2013-02-14 13:18:00,51.8,34.3,29.97,WNW,292,3.4,6.7,51,0.00,,CLR,0.00,VWS V12.08,2013-02-14 18:18:00,
2013-02-14 13:23:00,52.0,33.9,29.97,NW,315,2.7,5.6,50,0.00,,CLR,0.00,VWS V12.08,2013-02-14 18:23:00,
2013-02-14 13:28:00,52.2,34.1,29.96,West,270,0.0,5.6,50,0.00,,CLR,0.00,VWS V12.08,2013-02-14 18:28:00,
2013-02-14 13:33:00,52.2,34.1,29.96,West,270,2.0,5.6,50,0.00,,CLR,0.00,VWS V12.08,2013-02-14 18:33:00,
2013-02-14 13:38:00,52.3,34.3,29.96,West,270,0.0,6.9,50,0.00,,CLR,0.00,VWS V12.08,2013-02-14 18:38:00,
2013-02-14 13:43:00,52.5,33.9,29.95,WNW,292,5.6,6.7,49,0.00,,CLR,0.00,VWS V12.08,2013-02-14 18:43:00,
2013-02-14 13:48:00,52.5,33.9,29.94,WSW,248,0.0,6.7,49,0.00,,CLR,0.00,VWS V12.08,2013-02-14 18:48:00,
2013-02-14 13:53:00,52.5,33.9,29.94,NNW,338,0.0,6.7,49,0.00,,CLR,0.00,VWS V12.08,2013-02-14 18:53:00,
2013-02-14 13:58:00,52.9,34.8,29.94,SE,135,0.0,8.1,50,0.00,,CLR,0.00,VWS V12.08,2013-02-14 18:58:00,
2013-02-14 14:03:00,53.2,34.6,29.93,North,0,0.0,1.1,49,0.00,,CLR,0.00,VWS V12.08,2013-02-14 19:03:00,
2013-02-14 14:08:00,53.2,34.6,29.93,WSW,248,0.0,5.1,49,0.00,,CLR,0.00,VWS V12.08,2013-02-14 19:08:00,
2013-02-14 14:13:00,53.4,34.2,29.93,WSW,248,0.0,6.5,48,0.00,,CLR,0.00,VWS V12.08,2013-02-14 19:13:00,
2013-02-14 14:18:00,53.2,34.6,29.92,ESE,112,3.1,6.5,49,0.00,,CLR,0.00,VWS V12.08,2013-02-14 19:18:00,
2013-02-14 14:23:00,53.4,34.8,29.93,SW,225,0.0,1.6,49,0.00,,CLR,0.00,VWS V12.08,2013-02-14 19:23:00,
2013-02-14 14:28:00,53.8,35.1,29.93,WSW,248,0.0,6.0,49,0.00,,CLR,0.00,VWS V12.08,2013-02-14 19:28:00,
2013-02-14 14:33:00,54.0,35.2,29.94,WSW,248,0.0,6.0,49,0.00,,CLR,0.00,VWS V12.08,2013-02-14 19:33:00,
2013-02-14 14:38:00,54.1,35.4,29.93,WNW,292,0.0,6.0,49,0.00,,CLR,0.00,VWS V12.08,2013-02-14 19:38:00,
2013-02-14 14:43:00,53.8,34.6,29.94,ESE,112,0.2,1.3,48,0.00,,CLR,0.00,VWS V12.08,2013-02-14 19:43:00,
2013-02-14 14:48:00,53.4,34.2,29.94,South,180,5.4,5.4,48,0.00,,CLR,0.00,VWS V12.08,2013-02-14 19:48:00,
2013-02-14 14:53:00,53.4,34.2,29.94,South,180,0.0,5.4,48,0.00,,CLR,0.00,VWS V12.08,2013-02-14 19:53:00,
2013-02-14 14:58:00,53.4,34.8,29.95,South,180,0.0,5.4,49,0.00,,CLR,0.00,VWS V12.08,2013-02-14 19:58:00,
2013-02-14 15:03:00,53.4,33.7,29.95,SSE,158,2.9,3.1,47,0.00,,CLR,0.00,VWS V12.08,2013-02-14 20:03:00,
2013-02-14 15:08:00,53.6,33.9,29.95,WSW,248,2.2,5.6,47,0.00,,CLR,0.00,VWS V12.08,2013-02-14 20:08:00,
2013-02-14 15:13:00,53.4,33.7,29.94,SW,225,0.2,5.6,47,0.00,,CLR,0.00,VWS V12.08,2013-02-14 20:13:00,
2013-02-14 15:18:00,53.4,33.7,29.95,West,270,1.6,5.6,47,0.00,,CLR,0.00,VWS V12.08,2013-02-14 20:18:00,
2013-02-14 15:23:00,53.4,33.7,29.94,SE,135,0.0,2.2,47,0.00,,CLR,0.00,VWS V12.08,2013-02-14 20:23:00,
2013-02-14 15:28:00,53.2,33.5,29.94,SE,135,1.3,2.2,47,0.00,,CLR,0.00,VWS V12.08,2013-02-14 20:28:00,
2013-02-14 15:33:00,53.2,34.1,29.94,SE,135,1.8,4.0,48,0.00,,CLR,0.00,VWS V12.08,2013-02-14 20:33:00,
2013-02-14 15:38:00,53.2,34.1,29.94,SSE,158,0.0,4.0,48,0.00,,CLR,0.00,VWS V12.08,2013-02-14 20:38:00,
2013-02-14 15:43:00,53.2,33.5,29.94,SSW,202,1.1,2.9,47,0.00,,CLR,0.00,VWS V12.08,2013-02-14 20:43:00,
2013-02-14 15:48:00,52.9,33.2,29.94,West,270,0.0,5.8,47,0.00,,CLR,0.00,VWS V12.08,2013-02-14 20:48:00,
2013-02-14 15:53:00,52.7,33.6,29.94,NW,315,0.0,5.8,48,0.00,,CLR,0.00,VWS V12.08,2013-02-14 20:53:00,
2013-02-14 15:58:00,52.5,33.4,29.94,South,180,0.0,5.8,48,0.00,,CLR,0.00,VWS V12.08,2013-02-14 20:58:00,
2013-02-14 16:03:00,52.5,33.4,29.94,ESE,112,0.0,4.3,48,0.00,,CLR,0.00,VWS V12.08,2013-02-14 21:03:00,
2013-02-14 16:08:00,52.3,33.2,29.94,NNE,22,1.8,4.3,48,0.00,,CLR,0.00,VWS V12.08,2013-02-14 21:08:00,
2013-02-14 16:13:00,52.3,33.2,29.94,SW,225,4.0,4.3,48,0.00,,CLR,0.00,VWS V12.08,2013-02-14 21:13:00,
2013-02-14 16:18:00,52.2,33.1,29.94,South,180,0.0,4.3,48,0.00,,CLR,0.00,VWS V12.08,2013-02-14 21:18:00,
2013-02-14 16:23:00,52.2,33.6,29.93,ESE,112,0.0,2.0,49,0.00,,CLR,0.00,VWS V12.08,2013-02-14 21:23:00,
2013-02-14 16:28:00,52.2,33.6,29.94,SSE,158,0.0,2.2,49,0.00,,CLR,0.00,VWS V12.08,2013-02-14 21:28:00,
2013-02-14 16:33:00,52.2,33.6,29.94,SSW,202,0.0,5.4,49,0.00,,CLR,0.00,VWS V12.08,2013-02-14 21:33:00,
2013-02-14 16:38:00,52.0,33.4,29.94,SSW,202,0.0,5.4,49,0.00,,CLR,0.00,VWS V12.08,2013-02-14 21:38:00,
2013-02-14 16:43:00,52.0,33.4,29.94,SW,225,0.0,0.7,49,0.00,,CLR,0.00,VWS V12.08,2013-02-14 21:43:00,
2013-02-14 16:48:00,51.8,33.8,29.94,SSW,202,0.0,0.9,50,0.00,,CLR,0.00,VWS V12.08,2013-02-14 21:48:00,
2013-02-14 16:53:00,51.6,33.1,29.94,SW,225,0.0,4.0,49,0.00,,CLR,0.00,VWS V12.08,2013-02-14 21:53:00,
2013-02-14 16:58:00,51.4,33.4,29.94,SE,135,0.0,4.0,50,0.00,,CLR,0.00,VWS V12.08,2013-02-14 21:58:00,
2013-02-14 17:03:00,51.1,33.6,29.94,SSE,158,0.0,1.1,51,0.00,,CLR,0.00,VWS V12.08,2013-02-14 22:03:00,
2013-02-14 17:08:00,50.9,33.4,29.94,SSE,158,0.0,1.1,51,0.00,,CLR,0.00,VWS V12.08,2013-02-14 22:08:00,
2013-02-14 17:13:00,50.5,33.6,29.94,SSE,158,0.0,1.1,52,0.00,,CLR,0.00,VWS V12.08,2013-02-14 22:13:00,
2013-02-14 17:18:00,50.4,33.9,29.94,ESE,112,0.0,1.1,53,0.00,,CLR,0.00,VWS V12.08,2013-02-14 22:18:00,
2013-02-14 17:23:00,50.2,33.7,29.94,ESE,112,0.0,0.0,53,0.00,,CLR,0.00,VWS V12.08,2013-02-14 22:23:00,
2013-02-14 17:28:00,49.8,33.4,29.94,ESE,112,0.0,0.0,53,0.00,,CLR,0.00,VWS V12.08,2013-02-14 22:28:00,
2013-02-14 17:33:00,49.6,33.2,29.95,ESE,112,0.0,14.1,53,0.00,,CLR,0.00,VWS V12.08,2013-02-14 22:33:00,
2013-02-14 17:38:00,49.1,33.2,29.95,ESE,112,0.0,14.1,54,0.00,,CLR,0.00,VWS V12.08,2013-02-14 22:38:00,
2013-02-14 17:43:00,48.7,33.3,29.94,ESE,112,0.0,0.0,55,0.00,,CLR,0.00,VWS V12.08,2013-02-14 22:43:00,
2013-02-14 17:48:00,48.6,33.1,29.95,ESE,112,0.0,0.0,55,0.00,,CLR,0.00,VWS V12.08,2013-02-14 22:48:00,
2013-02-14 17:53:00,48.2,33.3,29.94,ESE,112,0.0,0.0,56,0.00,,CLR,0.00,VWS V12.08,2013-02-14 22:53:00,
2013-02-14 17:58:00,47.8,33.4,29.95,ESE,112,0.0,0.0,57,0.00,,CLR,0.00,VWS V12.08,2013-02-14 22:58:00,
2013-02-14 18:03:00,47.3,32.8,29.95,ESE,112,0.0,0.0,57,0.00,,CLR,0.00,VWS V12.08,2013-02-14 23:03:00,
2013-02-14 18:08:00,46.8,32.8,29.95,ESE,112,0.0,0.0,58,0.00,,CLR,0.00,VWS V12.08,2013-02-14 23:08:00,
2013-02-14 18:13:00,46.4,32.9,29.95,ESE,112,0.0,0.0,59,0.00,,CLR,0.00,VWS V12.08,2013-02-14 23:13:00,
2013-02-14 18:18:00,46.0,33.0,29.96,SE,135,0.0,0.0,60,0.00,,CLR,0.00,VWS V12.08,2013-02-14 23:18:00,
2013-02-14 18:23:00,45.7,32.6,29.96,SE,135,0.0,0.0,60,0.00,,CLR,0.00,VWS V12.08,2013-02-14 23:23:00,
2013-02-14 18:28:00,45.3,32.7,29.96,SE,135,0.0,0.0,61,0.00,,CLR,0.00,VWS V12.08,2013-02-14 23:28:00,
2013-02-14 18:33:00,44.8,32.2,29.96,ESE,112,0.0,0.0,61,0.00,,CLR,0.00,VWS V12.08,2013-02-14 23:33:00,
2013-02-14 18:38:00,44.4,32.2,29.96,ESE,112,0.0,0.0,62,0.00,,CLR,0.00,VWS V12.08,2013-02-14 23:38:00,
2013-02-14 18:43:00,43.9,32.1,29.96,ESE,112,0.0,0.0,63,0.00,,CLR,0.00,VWS V12.08,2013-02-14 23:43:00,
2013-02-14 18:48:00,43.7,32.0,29.96,ESE,112,0.0,0.0,63,0.00,,CLR,0.00,VWS V12.08,2013-02-14 23:48:00,
2013-02-14 18:53:00,43.3,32.0,29.97,ESE,112,0.0,0.0,64,0.00,,CLR,0.00,VWS V12.08,2013-02-14 23:53:00,
2013-02-14 18:58:00,43.2,31.8,29.97,ESE,112,0.0,0.0,64,0.00,,CLR,0.00,VWS V12.08,2013-02-14 23:58:00,
2013-02-14 19:03:00,42.8,31.5,29.96,SE,135,0.0,0.0,64,0.00,,CLR,0.00,VWS V12.08,2013-02-15 00:03:00,
2013-02-14 19:08:00,42.6,31.7,29.96,SE,135,0.0,0.0,65,0.00,,CLR,0.00,VWS V12.08,2013-02-15 00:08:00,
2013-02-14 19:13:00,42.1,31.2,29.96,SE,135,0.0,0.0,65,0.00,,CLR,0.00,VWS V12.08,2013-02-15 00:13:00,
2013-02-14 19:18:00,42.1,31.2,29.96,SE,135,0.0,0.0,65,0.00,,CLR,0.00,VWS V12.08,2013-02-15 00:18:00,
2013-02-14 19:23:00,41.7,30.8,29.97,SE,135,0.0,0.0,65,0.00,,CLR,0.00,VWS V12.08,2013-02-15 00:23:00,
2013-02-14 19:28:00,41.5,31.0,29.96,SE,135,0.0,0.0,66,0.00,,CLR,0.00,VWS V12.08,2013-02-15 00:28:00,
2013-02-14 19:33:00,41.4,30.9,29.96,SE,135,0.0,0.0,66,0.00,,CLR,0.00,VWS V12.08,2013-02-15 00:33:00,
2013-02-14 19:38:00,41.2,30.7,29.97,SE,135,0.0,0.0,66,0.00,,CLR,0.00,VWS V12.08,2013-02-15 00:38:00,
2013-02-14 19:43:00,41.0,30.5,29.97,SE,135,0.0,0.0,66,0.00,,CLR,0.00,VWS V12.08,2013-02-15 00:43:00,
2013-02-14 19:48:00,40.8,30.4,29.97,SSW,202,0.0,0.0,66,0.00,,CLR,0.00,VWS V12.08,2013-02-15 00:48:00,
2013-02-14 19:53:00,40.5,30.4,29.97,SSW,202,0.0,0.0,67,0.00,,CLR,0.00,VWS V12.08,2013-02-15 00:53:00,
2013-02-14 19:58:00,40.1,30.0,29.98,SSW,202,0.0,0.0,67,0.00,,CLR,0.00,VWS V12.08,2013-02-15 00:58:00,
2013-02-14 20:03:00,39.9,30.2,29.98,SSW,202,0.0,0.0,68,0.00,,CLR,0.00,VWS V12.08,2013-02-15 01:03:00,
2013-02-14 20:08:00,39.4,30.1,29.98,East,90,0.9,0.9,69,0.00,,CLR,0.00,VWS V12.08,2013-02-15 01:08:00,
2013-02-14 20:13:00,39.0,29.7,29.98,East,90,0.0,0.9,69,0.00,,CLR,0.00,VWS V12.08,2013-02-15 01:13:00,
2013-02-14 20:18:00,38.8,29.9,29.98,East,90,0.0,0.9,70,0.00,,CLR,0.00,VWS V12.08,2013-02-15 01:18:00,
2013-02-14 20:23:00,38.5,29.6,29.98,East,90,0.0,0.0,70,0.00,,CLR,0.00,VWS V12.08,2013-02-15 01:23:00,
2013-02-14 20:28:00,38.5,29.6,29.98,ESE,112,0.0,0.0,70,0.00,,CLR,0.00,VWS V12.08,2013-02-15 01:28:00,
2013-02-14 20:33:00,38.5,29.9,29.98,ESE,112,0.0,0.0,71,0.00,,CLR,0.00,VWS V12.08,2013-02-15 01:33:00,
2013-02-14 20:38:00,38.5,29.9,29.98,ESE,112,0.0,0.0,71,0.00,,CLR,0.00,VWS V12.08,2013-02-15 01:38:00,
2013-02-14 20:43:00,38.3,29.7,29.98,ESE,112,0.0,0.0,71,0.00,,CLR,0.00,VWS V12.08,2013-02-15 01:43:00,
2013-02-14 20:48:00,38.1,29.6,29.99,ESE,112,0.0,0.0,71,0.00,,CLR,0.00,VWS V12.08,2013-02-15 01:48:00,
2013-02-14 20:53:00,37.9,29.4,29.99,ESE,112,0.0,0.0,71,0.00,,CLR,0.00,VWS V12.08,2013-02-15 01:53:00,
2013-02-14 20:58:00,37.9,29.4,29.99,ESE,112,0.0,0.0,71,0.00,,CLR,0.00,VWS V12.08,2013-02-15 01:58:00,
2013-02-14 21:03:00,37.9,29.7,29.99,ESE,112,0.0,0.0,72,0.00,,CLR,0.00,VWS V12.08,2013-02-15 02:03:00,
2013-02-14 21:08:00,37.8,29.6,29.99,ESE,112,0.0,0.0,72,0.00,,CLR,0.00,VWS V12.08,2013-02-15 02:08:00,
2013-02-14 21:13:00,37.6,29.4,30.00,ESE,112,0.0,0.0,72,0.00,,CLR,0.00,VWS V12.08,2013-02-15 02:13:00,
2013-02-14 21:18:00,37.6,29.4,30.00,ESE,112,0.0,0.0,72,0.00,,CLR,0.00,VWS V12.08,2013-02-15 02:18:00,
2013-02-14 21:23:00,37.6,29.4,30.00,SE,135,0.0,0.0,72,0.00,,CLR,0.00,VWS V12.08,2013-02-15 02:23:00,
2013-02-14 21:28:00,37.6,29.7,30.00,SE,135,0.0,0.0,73,0.00,,CLR,0.00,VWS V12.08,2013-02-15 02:28:00,
2013-02-14 21:33:00,37.8,29.9,30.00,SE,135,0.0,0.0,73,0.00,,CLR,0.00,VWS V12.08,2013-02-15 02:33:00,
2013-02-14 21:38:00,37.8,29.6,30.00,SE,135,0.0,0.0,72,0.00,,CLR,0.00,VWS V12.08,2013-02-15 02:38:00,
2013-02-14 21:43:00,37.6,29.4,30.00,SE,135,0.0,0.0,72,0.00,,CLR,0.00,VWS V12.08,2013-02-15 02:43:00,
2013-02-14 21:48:00,37.2,29.0,30.00,SE,135,0.0,0.0,72,0.00,,CLR,0.00,VWS V12.08,2013-02-15 02:48:00,
2013-02-14 21:53:00,37.0,29.2,30.01,SE,135,0.0,0.0,73,0.00,,CLR,0.00,VWS V12.08,2013-02-15 02:53:00,
2013-02-14 21:58:00,36.5,28.7,30.01,SE,135,0.0,0.0,73,0.00,,CLR,0.00,VWS V12.08,2013-02-15 02:58:00,
2013-02-14 22:03:00,36.3,28.5,30.01,SE,135,0.0,0.0,73,0.00,,CLR,0.00,VWS V12.08,2013-02-15 03:03:00,
2013-02-14 22:08:00,36.3,28.8,30.01,SE,135,0.0,0.0,74,0.00,,CLR,0.00,VWS V12.08,2013-02-15 03:08:00,
2013-02-14 22:14:00,36.5,29.0,30.01,SE,135,0.0,2.0,74,0.00,,CLR,0.00,VWS V12.08,2013-02-15 03:14:00,
2013-02-14 22:19:00,36.5,29.0,30.01,SE,135,0.0,2.0,74,0.00,,CLR,0.00,VWS V12.08,2013-02-15 03:19:00,
2013-02-14 22:24:00,36.5,29.0,30.00,SE,135,0.0,0.0,74,0.00,,CLR,0.00,VWS V12.08,2013-02-15 03:24:00,
2013-02-14 22:29:00,36.3,28.8,30.01,SE,135,0.0,0.0,74,0.00,,CLR,0.00,VWS V12.08,2013-02-15 03:29:00,
2013-02-14 22:34:00,36.1,28.7,30.01,SE,135,0.0,0.0,74,0.00,,CLR,0.00,VWS V12.08,2013-02-15 03:34:00,
2013-02-14 22:39:00,36.0,28.5,30.00,SE,135,0.0,0.0,74,0.00,,CLR,0.00,VWS V12.08,2013-02-15 03:39:00,
2013-02-14 22:44:00,35.8,28.3,30.01,SE,135,0.0,0.0,74,0.00,,CLR,0.00,VWS V12.08,2013-02-15 03:44:00,
2013-02-14 22:49:00,35.4,28.0,30.01,SE,135,0.0,0.0,74,0.00,,CLR,0.00,VWS V12.08,2013-02-15 03:49:00,
2013-02-14 22:54:00,35.4,28.0,30.01,SE,135,0.0,0.0,74,0.00,,CLR,0.00,VWS V12.08,2013-02-15 03:54:00,
2013-02-14 22:59:00,35.4,28.0,30.01,SE,135,0.0,0.0,74,0.00,,CLR,0.00,VWS V12.08,2013-02-15 03:59:00,
2013-02-14 23:04:00,34.3,27.2,30.01,SE,135,0.0,0.0,75,0.00,,CLR,0.00,VWS V12.08,2013-02-15 04:04:00,
2013-02-14 23:09:00,34.3,27.2,30.01,SE,135,0.0,0.0,75,0.00,,CLR,0.00,VWS V12.08,2013-02-15 04:09:00,
2013-02-14 23:14:00,34.3,27.2,30.01,SE,135,0.0,0.0,75,0.00,,CLR,0.00,VWS V12.08,2013-02-15 04:14:00,
2013-02-14 23:19:00,34.3,27.6,30.01,SE,135,0.0,0.0,76,0.00,,CLR,0.00,VWS V12.08,2013-02-15 04:19:00,
2013-02-14 23:24:00,34.3,27.6,30.01,SE,135,0.0,0.0,76,0.00,,CLR,0.00,VWS V12.08,2013-02-15 04:24:00,
2013-02-14 23:29:00,34.3,27.6,30.01,SE,135,0.0,0.0,76,0.00,,CLR,0.00,VWS V12.08,2013-02-15 04:29:00,
2013-02-14 23:34:00,34.3,27.6,30.01,SE,135,0.0,0.0,76,0.00,,CLR,0.00,VWS V12.08,2013-02-15 04:34:00,
2013-02-14 23:39:00,34.3,27.9,30.01,SE,135,0.0,0.0,77,0.00,,CLR,0.00,VWS V12.08,2013-02-15 04:39:00,
2013-02-14 23:44:00,34.3,27.9,30.01,SE,135,0.0,0.0,77,0.00,,CLR,0.00,VWS V12.08,2013-02-15 04:44:00,
2013-02-14 23:49:00,34.3,27.9,30.01,SE,135,0.0,0.0,77,0.00,,CLR,0.00,VWS V12.08,2013-02-15 04:49:00,
2013-02-14 23:54:00,34.0,27.5,30.01,SE,135,0.0,0.0,77,0.00,,CLR,0.00,VWS V12.08,2013-02-15 04:54:00,
2013-02-14 23:59:00,33.8,27.4,30.02,SE,135,0.0,0.0,77,0.00,,CLR,0.00,VWS V12.08,2013-02-15 04:59:00,